Airfield :
LOGIN :

Register | Disclaimer

   EN    FR    IT 

 










Legend :    VFR   Marginal VFR   IFR   Intensive IFR   Very Intensive IFR
Visi :
Ceiling :
>= 8 km
>= 3000ft
5 to 8 km
1000 to 3000 ft
1500m to 5 km
500 to 1000 ft
800 to 1500m
200 to 500 ft
< 800m
< 200 ft
Symbols :   Thunderstorms  Fog  Heavy snow  Heavy precipitations  Wind > 20 kt
SIGMETs :     Misc.  Thunderstorms  Icing  Turbulence  Mountain Waves  Volcanic Ashes







- Airport Elevation : 44 ft
- IATA code : SOU
- Download approach charts


EGHI - Southampton

CURRENT METAR :
  • 180750Z 20007KT 9000 FEW008 09/07 Q1015

EXPIRED METARs :
  • 180720Z 19005KT 9000 SCT007 BKN011 08/07 Q1015
  • 180650Z 18006KT 140V200 9999 SCT007 BKN010 08/07 Q1015
  • 180620Z 18005KT 150V210 9999 FEW010 BKN013 08/07 Q1015
  • 180550Z VRB03KT 9999 FEW010 BKN015 08/07 Q1015

TAF TAF EGHI
Valid from the 18 at 06:00 until the 18 at 15:00 UTC


180630Z 1806/1815 20008KT 9999 FEW008 BKN015
TEMPO 1806/1812 6000 RA BKN008
ATIS : +44 23 8062 7103
No reported NOTAMs for that airfield.



MET'MAP, your aeronautical weather chart ! - Copyright ORBIFLY December 2007 - Disclaimer

ORBIFLY MET'MAP TEAM :

Programming & Development : Alexandra Zaïnal
Concept & Development : Baudouin d'Aumeries
Co-Development & Prog : Marc-Olivier Méhu
Technical & hardware support : Manuel Goepfert

Contact : metmap@orbifly.com




SOURCES & CREDITS :

   NOAA